CheckWX is a tool to help pilots better visualize weather data.  It is not intended as a substitute for an official pre-flight weather briefing.

08:12:23 UTC

KRKR METAR
Robert S Kerr Airport
Poteau, Oklahoma, USA
Current

17 mins ago

KRKR 220755Z AUTO 01008KT 10SM OVC016 05/02 A3010 RMK AO2
Observed
Feb-22 @ 07:55 UTC
Wind
  • 010° at 8 KTS
Visibility
10 SM
Flight Rules
MVFR
Cloud Levels
  • Overcast at 1,600' AGL
Temperature
C / 41°F
Dewpoint
C / 36°F
Humidity
81%
Altimeter
30.1" Hg
Pressure
1019.32 hPa
Previous

37 mins ago

KRKR 220735Z AUTO 02005KT 10SM OVC016 05/02 A3010 RMK AO2
Observed
Feb-22 @ 07:35 UTC
Wind
  • 020° at 5 KTS
Visibility
10 SM
Flight Rules
MVFR
Cloud Levels
  • Overcast at 1,600' AGL
Temperature
C / 41°F
Dewpoint
C / 36°F
Humidity
81%
Altimeter
30.1" Hg
Pressure
1019.32 hPa
Previous

57 mins ago

KRKR 220715Z AUTO 03006KT 10SM OVC016 05/02 A3010 RMK AO2
Observed
Feb-22 @ 07:15 UTC
Wind
  • 030° at 6 KTS
Visibility
10 SM
Flight Rules
MVFR
Cloud Levels
  • Overcast at 1,600' AGL
Temperature
C / 41°F
Dewpoint
C / 36°F
Humidity
81%
Altimeter
30.1" Hg
Pressure
1019.32 hPa